sensor_id;sensor_type;location;lat;lon;timestamp;temperature;humidity
14192;DHT22;7177;48.572;7.838;2023-10-31T00:02:01;11.10;99.90
14192;DHT22;7177;48.572;7.838;2023-10-31T00:04:26;11.10;99.90
14192;DHT22;7177;48.572;7.838;2023-10-31T00:06:52;11.10;99.90
14192;DHT22;7177;48.572;7.838;2023-10-31T00:09:17;11.10;99.90
14192;DHT22;7177;48.572;7.838;2023-10-31T00:11:43;11.10;99.90
14192;DHT22;7177;48.572;7.838;2023-10-31T00:14:09;11.00;99.90
14192;DHT22;7177;48.572;7.838;2023-10-31T00:16:35;11.10;99.90
14192;DHT22;7177;48.572;7.838;2023-10-31T00:19:00;11.10;99.90
14192;DHT22;7177;48.572;7.838;2023-10-31T00:21:26;11.10;99.90
14192;DHT22;7177;48.572;7.838;2023-10-31T00:23:51;11.10;99.90
14192;DHT22;7177;48.572;7.838;2023-10-31T00:26:17;11.10;99.90
14192;DHT22;7177;48.572;7.838;2023-10-31T00:28:42;11.10;99.90
14192;DHT22;7177;48.572;7.838;2023-10-31T00:31:08;11.10;99.90
14192;DHT22;7177;48.572;7.838;2023-10-31T00:33:37;11.10;99.90
14192;DHT22;7177;48.572;7.838;2023-10-31T00:36:02;11.10;99.90
14192;DHT22;7177;48.572;7.838;2023-10-31T00:38:28;11.10;99.90
14192;DHT22;7177;48.572;7.838;2023-10-31T00:40:53;11.10;99.90
14192;DHT22;7177;48.572;7.838;2023-10-31T00:43:19;11.10;99.90
14192;DHT22;7177;48.572;7.838;2023-10-31T00:45:44;11.10;99.90
14192;DHT22;7177;48.572;7.838;2023-10-31T00:48:10;11.10;99.90
14192;DHT22;7177;48.572;7.838;2023-10-31T00:50:36;11.10;99.90
14192;DHT22;7177;48.572;7.838;2023-10-31T00:53:01;11.10;99.90
14192;DHT22;7177;48.572;7.838;2023-10-31T00:55:27;11.10;99.90
14192;DHT22;7177;48.572;7.838;2023-10-31T00:57:52;11.10;99.90
14192;DHT22;7177;48.572;7.838;2023-10-31T01:00:18;11.10;99.90
14192;DHT22;7177;48.572;7.838;2023-10-31T01:02:44;11.10;99.90
14192;DHT22;7177;48.572;7.838;2023-10-31T01:05:10;11.20;99.90
14192;DHT22;7177;48.572;7.838;2023-10-31T01:07:36;11.20;99.90
14192;DHT22;7177;48.572;7.838;2023-10-31T01:10:02;11.20;99.90
14192;DHT22;7177;48.572;7.838;2023-10-31T01:12:28;11.20;99.90
14192;DHT22;7177;48.572;7.838;2023-10-31T01:14:54;11.20;99.90
14192;DHT22;7177;48.572;7.838;2023-10-31T01:17:20;11.20;99.90
14192;DHT22;7177;48.572;7.838;2023-10-31T01:19:46;11.10;99.90
14192;DHT22;7177;48.572;7.838;2023-10-31T01:22:12;11.10;99.90
14192;DHT22;7177;48.572;7.838;2023-10-31T01:24:37;11.10;99.90
14192;DHT22;7177;48.572;7.838;2023-10-31T01:27:03;11.10;99.90
14192;DHT22;7177;48.572;7.838;2023-10-31T01:29:29;11.10;99.90
14192;DHT22;7177;48.572;7.838;2023-10-31T01:31:54;11.10;99.90
14192;DHT22;7177;48.572;7.838;2023-10-31T01:34:20;11.00;99.90
14192;DHT22;7177;48.572;7.838;2023-10-31T01:36:45;11.00;99.90
14192;DHT22;7177;48.572;7.838;2023-10-31T01:39:11;11.00;99.90
14192;DHT22;7177;48.572;7.838;2023-10-31T01:41:36;11.00;99.90
14192;DHT22;7177;48.572;7.838;2023-10-31T01:44:02;11.00;99.90
14192;DHT22;7177;48.572;7.838;2023-10-31T01:46:28;11.00;99.90
14192;DHT22;7177;48.572;7.838;2023-10-31T01:48:53;11.00;99.90
14192;DHT22;7177;48.572;7.838;2023-10-31T01:51:19;11.00;99.90
14192;DHT22;7177;48.572;7.838;2023-10-31T01:53:45;11.00;99.90
14192;DHT22;7177;48.572;7.838;2023-10-31T01:56:10;11.00;99.90
14192;DHT22;7177;48.572;7.838;2023-10-31T01:58:36;10.90;99.90
14192;DHT22;7177;48.572;7.838;2023-10-31T02:01:03;10.90;99.90
14192;DHT22;7177;48.572;7.838;2023-10-31T02:03:30;10.90;99.90
14192;DHT22;7177;48.572;7.838;2023-10-31T02:05:56;10.90;99.90
14192;DHT22;7177;48.572;7.838;2023-10-31T02:08:22;10.90;99.90
14192;DHT22;7177;48.572;7.838;2023-10-31T02:10:48;10.90;99.90
14192;DHT22;7177;48.572;7.838;2023-10-31T02:13:17;10.90;99.90
14192;DHT22;7177;48.572;7.838;2023-10-31T02:15:44;10.80;99.90
14192;DHT22;7177;48.572;7.838;2023-10-31T02:18:10;10.80;99.90
14192;DHT22;7177;48.572;7.838;2023-10-31T02:20:36;10.80;99.90
14192;DHT22;7177;48.572;7.838;2023-10-31T02:23:02;10.80;99.90
14192;DHT22;7177;48.572;7.838;2023-10-31T02:25:28;10.80;99.90
14192;DHT22;7177;48.572;7.838;2023-10-31T02:27:54;10.80;99.90
14192;DHT22;7177;48.572;7.838;2023-10-31T02:30:19;10.80;99.90
14192;DHT22;7177;48.572;7.838;2023-10-31T02:32:45;10.80;99.90
14192;DHT22;7177;48.572;7.838;2023-10-31T02:35:12;10.80;99.90
14192;DHT22;7177;48.572;7.838;2023-10-31T02:37:38;10.80;99.90
14192;DHT22;7177;48.572;7.838;2023-10-31T02:40:04;10.80;99.90
14192;DHT22;7177;48.572;7.838;2023-10-31T02:42:30;10.80;99.90
14192;DHT22;7177;48.572;7.838;2023-10-31T02:44:56;10.80;99.90
14192;DHT22;7177;48.572;7.838;2023-10-31T02:47:21;10.80;99.90
14192;DHT22;7177;48.572;7.838;2023-10-31T02:49:47;10.80;99.90
14192;DHT22;7177;48.572;7.838;2023-10-31T02:52:12;10.80;99.90
14192;DHT22;7177;48.572;7.838;2023-10-31T02:54:38;10.80;99.90
14192;DHT22;7177;48.572;7.838;2023-10-31T02:57:04;10.70;99.90
14192;DHT22;7177;48.572;7.838;2023-10-31T02:59:29;10.70;99.90
14192;DHT22;7177;48.572;7.838;2023-10-31T03:01:57;10.80;99.90
14192;DHT22;7177;48.572;7.838;2023-10-31T03:04:23;10.80;99.90
14192;DHT22;7177;48.572;7.838;2023-10-31T03:06:48;10.80;99.90
14192;DHT22;7177;48.572;7.838;2023-10-31T03:09:14;10.80;99.90
14192;DHT22;7177;48.572;7.838;2023-10-31T03:11:40;10.80;99.90
14192;DHT22;7177;48.572;7.838;2023-10-31T03:14:05;10.80;99.90
14192;DHT22;7177;48.572;7.838;2023-10-31T03:16:31;9.60;99.90
14192;DHT22;7177;48.572;7.838;2023-10-31T03:18:58;10.80;99.90
14192;DHT22;7177;48.572;7.838;2023-10-31T03:21:23;10.80;99.90
14192;DHT22;7177;48.572;7.838;2023-10-31T03:23:50;10.80;99.90
14192;DHT22;7177;48.572;7.838;2023-10-31T03:26:16;10.80;99.90
14192;DHT22;7177;48.572;7.838;2023-10-31T03:28:43;10.80;99.90
14192;DHT22;7177;48.572;7.838;2023-10-31T03:31:09;10.90;99.90
14192;DHT22;7177;48.572;7.838;2023-10-31T03:33:35;10.90;99.90
14192;DHT22;7177;48.572;7.838;2023-10-31T03:36:00;10.90;99.90
14192;DHT22;7177;48.572;7.838;2023-10-31T03:38:26;10.90;99.90
14192;DHT22;7177;48.572;7.838;2023-10-31T03:40:51;10.90;99.90
14192;DHT22;7177;48.572;7.838;2023-10-31T03:43:18;10.90;99.90
14192;DHT22;7177;48.572;7.838;2023-10-31T03:45:43;10.90;99.90
14192;DHT22;7177;48.572;7.838;2023-10-31T03:48:09;10.80;99.90
14192;DHT22;7177;48.572;7.838;2023-10-31T03:50:34;10.80;99.90
14192;DHT22;7177;48.572;7.838;2023-10-31T03:53:00;10.80;99.90
14192;DHT22;7177;48.572;7.838;2023-10-31T03:55:25;10.70;99.90
14192;DHT22;7177;48.572;7.838;2023-10-31T03:57:51;10.70;99.90
14192;DHT22;7177;48.572;7.838;2023-10-31T04:00:16;10.70;99.90
14192;DHT22;7177;48.572;7.838;2023-10-31T04:02:42;10.70;99.90
14192;DHT22;7177;48.572;7.838;2023-10-31T04:05:08;10.60;99.90
14192;DHT22;7177;48.572;7.838;2023-10-31T04:07:33;10.60;99.90
14192;DHT22;7177;48.572;7.838;2023-10-31T04:09:59;10.60;99.90
14192;DHT22;7177;48.572;7.838;2023-10-31T04:12:24;10.60;99.90
14192;DHT22;7177;48.572;7.838;2023-10-31T04:14:50;10.60;99.90
14192;DHT22;7177;48.572;7.838;2023-10-31T04:17:15;10.60;99.90
14192;DHT22;7177;48.572;7.838;2023-10-31T04:19:41;10.60;99.90
14192;DHT22;7177;48.572;7.838;2023-10-31T04:22:06;10.60;99.90
14192;DHT22;7177;48.572;7.838;2023-10-31T04:24:32;10.50;99.90
14192;DHT22;7177;48.572;7.838;2023-10-31T04:26:57;10.60;99.90
14192;DHT22;7177;48.572;7.838;2023-10-31T04:29:23;10.60;99.90
14192;DHT22;7177;48.572;7.838;2023-10-31T04:31:48;10.60;99.90
14192;DHT22;7177;48.572;7.838;2023-10-31T04:34:14;10.60;99.90
14192;DHT22;7177;48.572;7.838;2023-10-31T04:36:40;10.70;99.90
14192;DHT22;7177;48.572;7.838;2023-10-31T04:39:05;10.70;99.90
14192;DHT22;7177;48.572;7.838;2023-10-31T04:41:31;10.70;99.90
14192;DHT22;7177;48.572;7.838;2023-10-31T04:43:57;10.70;99.90
14192;DHT22;7177;48.572;7.838;2023-10-31T04:46:24;10.70;99.90
14192;DHT22;7177;48.572;7.838;2023-10-31T04:48:52;10.70;99.90
14192;DHT22;7177;48.572;7.838;2023-10-31T04:51:17;10.70;99.90
14192;DHT22;7177;48.572;7.838;2023-10-31T04:53:43;10.70;99.90
14192;DHT22;7177;48.572;7.838;2023-10-31T04:56:12;10.70;99.90
14192;DHT22;7177;48.572;7.838;2023-10-31T04:58:42;10.70;99.90
14192;DHT22;7177;48.572;7.838;2023-10-31T05:01:15;10.70;99.90
14192;DHT22;7177;48.572;7.838;2023-10-31T05:03:41;10.70;99.90
14192;DHT22;7177;48.572;7.838;2023-10-31T05:06:07;10.70;99.90
14192;DHT22;7177;48.572;7.838;2023-10-31T05:08:32;10.70;99.90
14192;DHT22;7177;48.572;7.838;2023-10-31T05:10:58;10.70;99.90
14192;DHT22;7177;48.572;7.838;2023-10-31T05:13:24;10.80;99.90
14192;DHT22;7177;48.572;7.838;2023-10-31T05:15:50;10.80;99.90
14192;DHT22;7177;48.572;7.838;2023-10-31T05:18:16;10.70;99.90
14192;DHT22;7177;48.572;7.838;2023-10-31T05:20:42;10.70;99.90
14192;DHT22;7177;48.572;7.838;2023-10-31T05:23:07;10.80;99.90
14192;DHT22;7177;48.572;7.838;2023-10-31T05:25:34;10.70;99.90
14192;DHT22;7177;48.572;7.838;2023-10-31T05:28:00;10.60;99.90
14192;DHT22;7177;48.572;7.838;2023-10-31T05:30:25;10.50;99.90
14192;DHT22;7177;48.572;7.838;2023-10-31T05:32:51;10.50;99.90
14192;DHT22;7177;48.572;7.838;2023-10-31T05:35:17;10.40;99.90
14192;DHT22;7177;48.572;7.838;2023-10-31T05:37:43;10.40;99.90
14192;DHT22;7177;48.572;7.838;2023-10-31T05:40:09;10.40;99.90
14192;DHT22;7177;48.572;7.838;2023-10-31T05:42:35;10.40;99.90
14192;DHT22;7177;48.572;7.838;2023-10-31T05:45:01;10.40;99.90
14192;DHT22;7177;48.572;7.838;2023-10-31T05:47:26;10.40;99.90
14192;DHT22;7177;48.572;7.838;2023-10-31T05:49:53;10.70;99.90
14192;DHT22;7177;48.572;7.838;2023-10-31T05:52:18;10.80;99.90
14192;DHT22;7177;48.572;7.838;2023-10-31T05:54:44;10.90;99.90
14192;DHT22;7177;48.572;7.838;2023-10-31T05:57:09;10.90;99.90
14192;DHT22;7177;48.572;7.838;2023-10-31T05:59:35;10.90;99.90
14192;DHT22;7177;48.572;7.838;2023-10-31T06:02:00;10.90;99.90
14192;DHT22;7177;48.572;7.838;2023-10-31T06:04:26;10.90;99.90
14192;DHT22;7177;48.572;7.838;2023-10-31T06:06:51;10.90;99.90
14192;DHT22;7177;48.572;7.838;2023-10-31T06:09:17;11.00;99.90
14192;DHT22;7177;48.572;7.838;2023-10-31T06:11:43;11.00;99.90
14192;DHT22;7177;48.572;7.838;2023-10-31T06:14:09;10.90;99.90
14192;DHT22;7177;48.572;7.838;2023-10-31T06:16:43;11.00;99.90
14192;DHT22;7177;48.572;7.838;2023-10-31T06:19:09;11.00;99.90
14192;DHT22;7177;48.572;7.838;2023-10-31T06:21:35;11.00;99.90
14192;DHT22;7177;48.572;7.838;2023-10-31T06:24:01;11.00;99.90
14192;DHT22;7177;48.572;7.838;2023-10-31T06:26:27;11.10;99.90
14192;DHT22;7177;48.572;7.838;2023-10-31T06:28:53;11.10;99.90
14192;DHT22;7177;48.572;7.838;2023-10-31T06:31:18;11.10;99.90
14192;DHT22;7177;48.572;7.838;2023-10-31T06:33:44;11.10;99.90
14192;DHT22;7177;48.572;7.838;2023-10-31T06:36:09;11.10;99.90
14192;DHT22;7177;48.572;7.838;2023-10-31T06:38:35;11.00;99.90
14192;DHT22;7177;48.572;7.838;2023-10-31T06:41:00;11.00;99.90
14192;DHT22;7177;48.572;7.838;2023-10-31T06:43:26;11.00;99.90
14192;DHT22;7177;48.572;7.838;2023-10-31T06:45:53;10.80;99.90
14192;DHT22;7177;48.572;7.838;2023-10-31T06:48:18;10.70;99.90
14192;DHT22;7177;48.572;7.838;2023-10-31T06:50:44;10.60;99.90
14192;DHT22;7177;48.572;7.838;2023-10-31T06:53:09;10.50;99.90
14192;DHT22;7177;48.572;7.838;2023-10-31T06:55:35;10.40;99.90
14192;DHT22;7177;48.572;7.838;2023-10-31T06:58:00;10.40;99.90
14192;DHT22;7177;48.572;7.838;2023-10-31T07:00:26;10.30;99.90
14192;DHT22;7177;48.572;7.838;2023-10-31T07:02:52;10.30;99.90
14192;DHT22;7177;48.572;7.838;2023-10-31T07:05:18;10.30;99.90
14192;DHT22;7177;48.572;7.838;2023-10-31T07:07:46;10.30;99.90
14192;DHT22;7177;48.572;7.838;2023-10-31T07:10:11;10.30;99.90
14192;DHT22;7177;48.572;7.838;2023-10-31T07:12:37;10.30;99.90
14192;DHT22;7177;48.572;7.838;2023-10-31T07:15:03;10.30;99.90
14192;DHT22;7177;48.572;7.838;2023-10-31T07:17:28;10.40;99.90
14192;DHT22;7177;48.572;7.838;2023-10-31T07:19:54;10.40;99.90
14192;DHT22;7177;48.572;7.838;2023-10-31T07:22:19;10.40;99.90
14192;DHT22;7177;48.572;7.838;2023-10-31T07:24:45;10.50;99.90
14192;DHT22;7177;48.572;7.838;2023-10-31T07:27:11;10.50;99.90
14192;DHT22;7177;48.572;7.838;2023-10-31T07:29:40;10.50;99.90
14192;DHT22;7177;48.572;7.838;2023-10-31T07:32:07;10.50;99.90
14192;DHT22;7177;48.572;7.838;2023-10-31T07:34:33;10.50;99.90
14192;DHT22;7177;48.572;7.838;2023-10-31T07:36:58;10.60;99.90
14192;DHT22;7177;48.572;7.838;2023-10-31T07:39:24;10.60;99.90
14192;DHT22;7177;48.572;7.838;2023-10-31T07:41:49;10.60;99.90
14192;DHT22;7177;48.572;7.838;2023-10-31T07:44:15;10.70;99.90
14192;DHT22;7177;48.572;7.838;2023-10-31T07:46:40;10.70;99.90
14192;DHT22;7177;48.572;7.838;2023-10-31T07:49:06;10.70;99.90
14192;DHT22;7177;48.572;7.838;2023-10-31T07:51:31;10.80;99.90
14192;DHT22;7177;48.572;7.838;2023-10-31T07:53:57;10.80;99.90
14192;DHT22;7177;48.572;7.838;2023-10-31T07:56:23;10.90;99.90
14192;DHT22;7177;48.572;7.838;2023-10-31T07:58:50;10.90;99.90
14192;DHT22;7177;48.572;7.838;2023-10-31T08:01:17;11.00;99.90
14192;DHT22;7177;48.572;7.838;2023-10-31T08:03:43;11.00;99.90
14192;DHT22;7177;48.572;7.838;2023-10-31T08:06:10;11.10;99.90
14192;DHT22;7177;48.572;7.838;2023-10-31T08:08:36;11.10;99.90
14192;DHT22;7177;48.572;7.838;2023-10-31T08:11:02;11.10;99.90
14192;DHT22;7177;48.572;7.838;2023-10-31T08:13:29;11.10;99.90
14192;DHT22;7177;48.572;7.838;2023-10-31T08:15:54;11.10;99.90
14192;DHT22;7177;48.572;7.838;2023-10-31T08:18:21;11.00;99.90
14192;DHT22;7177;48.572;7.838;2023-10-31T08:20:46;11.10;99.90
14192;DHT22;7177;48.572;7.838;2023-10-31T08:23:15;11.10;99.90
14192;DHT22;7177;48.572;7.838;2023-10-31T08:25:40;11.10;99.90
14192;DHT22;7177;48.572;7.838;2023-10-31T08:28:06;11.20;99.90
14192;DHT22;7177;48.572;7.838;2023-10-31T08:30:32;11.30;99.90
14192;DHT22;7177;48.572;7.838;2023-10-31T08:32:57;11.50;99.90
14192;DHT22;7177;48.572;7.838;2023-10-31T08:35:23;11.60;99.90
14192;DHT22;7177;48.572;7.838;2023-10-31T08:37:48;11.60;99.90
14192;DHT22;7177;48.572;7.838;2023-10-31T08:40:14;11.50;99.90
14192;DHT22;7177;48.572;7.838;2023-10-31T08:42:39;11.40;99.90
14192;DHT22;7177;48.572;7.838;2023-10-31T08:45:07;11.40;99.90
14192;DHT22;7177;48.572;7.838;2023-10-31T08:47:33;11.40;99.90
14192;DHT22;7177;48.572;7.838;2023-10-31T08:49:59;11.40;99.90
14192;DHT22;7177;48.572;7.838;2023-10-31T08:52:24;11.40;99.90
14192;DHT22;7177;48.572;7.838;2023-10-31T08:54:50;11.40;99.90
14192;DHT22;7177;48.572;7.838;2023-10-31T08:57:15;11.40;99.90
14192;DHT22;7177;48.572;7.838;2023-10-31T08:59:41;11.50;99.90
14192;DHT22;7177;48.572;7.838;2023-10-31T09:02:06;11.60;99.90
14192;DHT22;7177;48.572;7.838;2023-10-31T09:04:32;11.70;99.90
14192;DHT22;7177;48.572;7.838;2023-10-31T09:06:57;11.70;99.90
14192;DHT22;7177;48.572;7.838;2023-10-31T09:09:23;11.80;99.90
14192;DHT22;7177;48.572;7.838;2023-10-31T09:11:48;11.70;99.90
14192;DHT22;7177;48.572;7.838;2023-10-31T09:14:14;11.80;99.90
14192;DHT22;7177;48.572;7.838;2023-10-31T09:16:39;12.00;99.90
14192;DHT22;7177;48.572;7.838;2023-10-31T09:19:05;12.30;99.90
14192;DHT22;7177;48.572;7.838;2023-10-31T09:21:30;12.80;99.90
14192;DHT22;7177;48.572;7.838;2023-10-31T09:23:56;13.30;99.90
14192;DHT22;7177;48.572;7.838;2023-10-31T09:26:21;13.40;99.90
14192;DHT22;7177;48.572;7.838;2023-10-31T09:28:47;13.40;99.90
14192;DHT22;7177;48.572;7.838;2023-10-31T09:31:18;13.40;99.90
14192;DHT22;7177;48.572;7.838;2023-10-31T09:33:45;13.40;99.90
14192;DHT22;7177;48.572;7.838;2023-10-31T09:36:11;13.40;99.90
14192;DHT22;7177;48.572;7.838;2023-10-31T09:38:38;13.30;99.90
14192;DHT22;7177;48.572;7.838;2023-10-31T09:41:04;13.30;99.90
14192;DHT22;7177;48.572;7.838;2023-10-31T09:43:29;13.40;99.90
14192;DHT22;7177;48.572;7.838;2023-10-31T09:45:56;13.40;99.90
14192;DHT22;7177;48.572;7.838;2023-10-31T09:48:22;13.40;99.90
14192;DHT22;7177;48.572;7.838;2023-10-31T09:50:49;13.30;99.90
14192;DHT22;7177;48.572;7.838;2023-10-31T09:53:15;13.30;99.90
14192;DHT22;7177;48.572;7.838;2023-10-31T09:55:45;13.30;99.90
14192;DHT22;7177;48.572;7.838;2023-10-31T09:58:11;13.30;99.90
14192;DHT22;7177;48.572;7.838;2023-10-31T10:00:37;13.30;99.90
14192;DHT22;7177;48.572;7.838;2023-10-31T10:03:06;13.30;99.90
14192;DHT22;7177;48.572;7.838;2023-10-31T10:05:35;13.10;99.90
14192;DHT22;7177;48.572;7.838;2023-10-31T10:08:00;13.10;99.90
14192;DHT22;7177;48.572;7.838;2023-10-31T10:10:26;13.30;99.90
14192;DHT22;7177;48.572;7.838;2023-10-31T10:12:52;13.50;99.90
14192;DHT22;7177;48.572;7.838;2023-10-31T10:15:18;13.90;99.90
14192;DHT22;7177;48.572;7.838;2023-10-31T10:17:50;13.90;99.90
14192;DHT22;7177;48.572;7.838;2023-10-31T10:20:16;13.90;99.90
14192;DHT22;7177;48.572;7.838;2023-10-31T10:22:43;13.80;99.90
14192;DHT22;7177;48.572;7.838;2023-10-31T10:25:10;13.50;99.90
14192;DHT22;7177;48.572;7.838;2023-10-31T10:27:37;13.50;99.90
14192;DHT22;7177;48.572;7.838;2023-10-31T10:30:04;13.50;99.90
14192;DHT22;7177;48.572;7.838;2023-10-31T10:32:30;13.40;99.90
14192;DHT22;7177;48.572;7.838;2023-10-31T10:34:55;13.30;99.90
14192;DHT22;7177;48.572;7.838;2023-10-31T10:37:21;13.20;99.90
14192;DHT22;7177;48.572;7.838;2023-10-31T10:39:51;13.10;99.90
14192;DHT22;7177;48.572;7.838;2023-10-31T10:45:07;13.00;99.90
14192;DHT22;7177;48.572;7.838;2023-10-31T10:47:36;13.00;99.90
14192;DHT22;7177;48.572;7.838;2023-10-31T10:50:06;13.00;99.90
14192;DHT22;7177;48.572;7.838;2023-10-31T10:53:34;13.00;99.90
14192;DHT22;7177;48.572;7.838;2023-10-31T10:56:18;13.20;99.90
14192;DHT22;7177;48.572;7.838;2023-10-31T11:01:16;13.40;99.90
14192;DHT22;7177;48.572;7.838;2023-10-31T11:03:45;13.40;99.90
14192;DHT22;7177;48.572;7.838;2023-10-31T11:06:12;13.50;99.90
14192;DHT22;7177;48.572;7.838;2023-10-31T11:08:38;13.50;99.90
14192;DHT22;7177;48.572;7.838;2023-10-31T11:11:06;13.50;99.90
14192;DHT22;7177;48.572;7.838;2023-10-31T11:13:32;13.50;99.90
14192;DHT22;7177;48.572;7.838;2023-10-31T11:16:01;13.40;99.90
14192;DHT22;7177;48.572;7.838;2023-10-31T11:18:29;13.30;99.90
14192;DHT22;7177;48.572;7.838;2023-10-31T11:20:55;13.30;99.90
14192;DHT22;7177;48.572;7.838;2023-10-31T11:23:21;13.20;99.90
14192;DHT22;7177;48.572;7.838;2023-10-31T11:25:49;13.30;99.90
14192;DHT22;7177;48.572;7.838;2023-10-31T11:28:16;13.30;99.90
14192;DHT22;7177;48.572;7.838;2023-10-31T11:30:43;13.30;99.90
14192;DHT22;7177;48.572;7.838;2023-10-31T11:33:14;13.40;99.90
14192;DHT22;7177;48.572;7.838;2023-10-31T11:35:41;13.40;99.90
14192;DHT22;7177;48.572;7.838;2023-10-31T11:38:08;13.30;99.90
14192;DHT22;7177;48.572;7.838;2023-10-31T11:40:58;13.30;99.90
14192;DHT22;7177;48.572;7.838;2023-10-31T11:43:19;13.30;99.90
14192;DHT22;7177;48.572;7.838;2023-10-31T11:45:45;13.30;99.90
14192;DHT22;7177;48.572;7.838;2023-10-31T11:48:14;13.40;99.90
14192;DHT22;7177;48.572;7.838;2023-10-31T11:50:40;13.50;99.90
14192;DHT22;7177;48.572;7.838;2023-10-31T11:53:14;13.50;99.90
14192;DHT22;7177;48.572;7.838;2023-10-31T11:55:43;13.50;99.90
14192;DHT22;7177;48.572;7.838;2023-10-31T11:58:16;13.50;99.90
14192;DHT22;7177;48.572;7.838;2023-10-31T12:00:43;13.50;99.90
14192;DHT22;7177;48.572;7.838;2023-10-31T12:03:10;13.60;99.90
14192;DHT22;7177;48.572;7.838;2023-10-31T12:05:35;13.70;99.90
14192;DHT22;7177;48.572;7.838;2023-10-31T12:08:01;13.70;99.90
14192;DHT22;7177;48.572;7.838;2023-10-31T12:10:28;13.80;99.90
14192;DHT22;7177;48.572;7.838;2023-10-31T12:12:55;13.80;99.90
14192;DHT22;7177;48.572;7.838;2023-10-31T12:15:21;13.80;99.90
14192;DHT22;7177;48.572;7.838;2023-10-31T12:17:48;13.90;99.90
14192;DHT22;7177;48.572;7.838;2023-10-31T12:20:14;13.90;99.90
14192;DHT22;7177;48.572;7.838;2023-10-31T12:22:39;13.90;99.90
14192;DHT22;7177;48.572;7.838;2023-10-31T12:25:09;13.90;99.90
14192;DHT22;7177;48.572;7.838;2023-10-31T12:27:48;13.80;99.90
14192;DHT22;7177;48.572;7.838;2023-10-31T12:30:20;13.80;99.90
14192;DHT22;7177;48.572;7.838;2023-10-31T12:32:53;13.70;99.90
14192;DHT22;7177;48.572;7.838;2023-10-31T12:35:21;13.60;99.90
14192;DHT22;7177;48.572;7.838;2023-10-31T12:37:48;13.40;99.90
14192;DHT22;7177;48.572;7.838;2023-10-31T12:40:18;13.30;99.90
14192;DHT22;7177;48.572;7.838;2023-10-31T12:42:45;13.20;99.90
14192;DHT22;7177;48.572;7.838;2023-10-31T12:45:14;13.10;99.90
14192;DHT22;7177;48.572;7.838;2023-10-31T12:47:40;13.00;99.90
14192;DHT22;7177;48.572;7.838;2023-10-31T12:50:07;13.00;99.90
14192;DHT22;7177;48.572;7.838;2023-10-31T12:52:47;12.90;99.90
14192;DHT22;7177;48.572;7.838;2023-10-31T12:55:14;12.90;99.90
14192;DHT22;7177;48.572;7.838;2023-10-31T12:57:40;13.00;99.90
14192;DHT22;7177;48.572;7.838;2023-10-31T13:00:06;13.10;99.90
14192;DHT22;7177;48.572;7.838;2023-10-31T13:02:35;13.20;99.90
14192;DHT22;7177;48.572;7.838;2023-10-31T13:05:11;13.20;99.90
14192;DHT22;7177;48.572;7.838;2023-10-31T13:07:37;13.30;99.90
14192;DHT22;7177;48.572;7.838;2023-10-31T13:10:04;13.30;99.90
14192;DHT22;7177;48.572;7.838;2023-10-31T13:12:31;13.30;99.90
14192;DHT22;7177;48.572;7.838;2023-10-31T13:14:56;13.40;99.90
14192;DHT22;7177;48.572;7.838;2023-10-31T13:17:22;13.50;99.90
14192;DHT22;7177;48.572;7.838;2023-10-31T13:19:47;13.60;99.90
14192;DHT22;7177;48.572;7.838;2023-10-31T13:22:13;13.60;99.90
14192;DHT22;7177;48.572;7.838;2023-10-31T13:24:38;13.60;99.90
14192;DHT22;7177;48.572;7.838;2023-10-31T13:27:05;13.60;99.90
14192;DHT22;7177;48.572;7.838;2023-10-31T13:29:31;13.60;99.90
14192;DHT22;7177;48.572;7.838;2023-10-31T13:31:58;13.60;99.90
14192;DHT22;7177;48.572;7.838;2023-10-31T13:34:24;13.60;99.90
14192;DHT22;7177;48.572;7.838;2023-10-31T13:36:49;13.50;99.90
14192;DHT22;7177;48.572;7.838;2023-10-31T13:39:15;13.50;99.90
14192;DHT22;7177;48.572;7.838;2023-10-31T13:41:40;13.50;99.90
14192;DHT22;7177;48.572;7.838;2023-10-31T13:44:06;13.50;99.90
14192;DHT22;7177;48.572;7.838;2023-10-31T13:46:31;13.40;99.90
14192;DHT22;7177;48.572;7.838;2023-10-31T13:48:57;13.40;99.90
14192;DHT22;7177;48.572;7.838;2023-10-31T13:51:22;13.40;99.90
14192;DHT22;7177;48.572;7.838;2023-10-31T13:53:48;13.30;99.90
14192;DHT22;7177;48.572;7.838;2023-10-31T13:56:15;13.30;99.90
14192;DHT22;7177;48.572;7.838;2023-10-31T13:58:41;13.30;99.90
14192;DHT22;7177;48.572;7.838;2023-10-31T14:01:06;13.30;99.90
14192;DHT22;7177;48.572;7.838;2023-10-31T14:03:32;13.20;99.90
14192;DHT22;7177;48.572;7.838;2023-10-31T14:05:57;13.20;99.90
14192;DHT22;7177;48.572;7.838;2023-10-31T14:08:23;13.20;99.90
14192;DHT22;7177;48.572;7.838;2023-10-31T14:10:48;13.20;99.90
14192;DHT22;7177;48.572;7.838;2023-10-31T14:13:14;13.20;99.90
14192;DHT22;7177;48.572;7.838;2023-10-31T14:15:41;13.20;99.90
14192;DHT22;7177;48.572;7.838;2023-10-31T14:18:06;13.30;99.90
14192;DHT22;7177;48.572;7.838;2023-10-31T14:20:33;13.30;99.90
14192;DHT22;7177;48.572;7.838;2023-10-31T14:22:58;13.30;99.90
14192;DHT22;7177;48.572;7.838;2023-10-31T14:25:24;13.40;99.90
14192;DHT22;7177;48.572;7.838;2023-10-31T14:27:49;13.50;99.90
14192;DHT22;7177;48.572;7.838;2023-10-31T14:30:15;13.50;99.90
14192;DHT22;7177;48.572;7.838;2023-10-31T14:32:41;13.50;99.90
14192;DHT22;7177;48.572;7.838;2023-10-31T14:35:07;13.50;99.90
14192;DHT22;7177;48.572;7.838;2023-10-31T14:37:33;13.50;99.90
14192;DHT22;7177;48.572;7.838;2023-10-31T14:40:00;13.50;99.90
14192;DHT22;7177;48.572;7.838;2023-10-31T14:42:25;13.40;99.90
14192;DHT22;7177;48.572;7.838;2023-10-31T14:44:51;13.40;99.90
14192;DHT22;7177;48.572;7.838;2023-10-31T14:47:17;13.40;99.90
14192;DHT22;7177;48.572;7.838;2023-10-31T14:49:44;13.40;99.90
14192;DHT22;7177;48.572;7.838;2023-10-31T14:52:09;13.50;99.90
14192;DHT22;7177;48.572;7.838;2023-10-31T14:54:35;13.50;99.90
14192;DHT22;7177;48.572;7.838;2023-10-31T14:57:01;13.50;99.90
14192;DHT22;7177;48.572;7.838;2023-10-31T14:59:27;13.60;99.90
14192;DHT22;7177;48.572;7.838;2023-10-31T15:01:53;13.50;99.90
14192;DHT22;7177;48.572;7.838;2023-10-31T15:04:19;13.50;99.90
14192;DHT22;7177;48.572;7.838;2023-10-31T15:06:44;13.50;99.90
14192;DHT22;7177;48.572;7.838;2023-10-31T15:09:10;13.40;99.90
14192;DHT22;7177;48.572;7.838;2023-10-31T15:11:36;13.40;99.90
14192;DHT22;7177;48.572;7.838;2023-10-31T15:14:02;13.30;99.90
14192;DHT22;7177;48.572;7.838;2023-10-31T15:16:28;13.30;99.90
14192;DHT22;7177;48.572;7.838;2023-10-31T15:18:53;13.20;99.90
14192;DHT22;7177;48.572;7.838;2023-10-31T15:21:19;13.20;99.90
14192;DHT22;7177;48.572;7.838;2023-10-31T15:23:44;13.10;99.90
14192;DHT22;7177;48.572;7.838;2023-10-31T15:26:10;13.10;99.90
14192;DHT22;7177;48.572;7.838;2023-10-31T15:28:41;13.00;99.90
14192;DHT22;7177;48.572;7.838;2023-10-31T15:31:11;13.00;99.90
14192;DHT22;7177;48.572;7.838;2023-10-31T15:33:36;13.00;99.90
14192;DHT22;7177;48.572;7.838;2023-10-31T15:36:02;12.90;99.90
14192;DHT22;7177;48.572;7.838;2023-10-31T15:38:28;12.90;99.90
14192;DHT22;7177;48.572;7.838;2023-10-31T15:40:54;12.90;99.90
14192;DHT22;7177;48.572;7.838;2023-10-31T15:43:19;12.90;99.90
14192;DHT22;7177;48.572;7.838;2023-10-31T15:45:45;12.90;99.90